createdAt,value
2022-09-12T00:03:33.517Z,2.30
2022-09-12T00:08:39.662Z,2.75
2022-09-12T00:13:52.961Z,2.80
2022-09-12T00:19:03.524Z,2.50
2022-09-12T00:24:11.973Z,3.70
2022-09-12T00:29:27.281Z,3.67
2022-09-12T00:34:33.714Z,3.47
2022-09-12T00:39:42.614Z,2.97
2022-09-12T00:44:52.124Z,3.10
2022-09-12T00:50:18.044Z,3.30
2022-09-12T00:55:32.213Z,3.55
2022-09-12T01:05:13.791Z,2.83
2022-09-12T01:10:19.086Z,4.18
2022-09-12T01:15:30.069Z,3.58
2022-09-12T01:21:03.221Z,3.10
2022-09-12T01:26:52.237Z,3.33
2022-09-12T01:32:24.676Z,3.50
2022-09-12T01:38:20.862Z,3.70
2022-09-12T01:43:38.132Z,3.63
2022-09-12T01:48:58.101Z,4.20
2022-09-12T01:54:33.242Z,3.60
2022-09-12T01:59:48.478Z,2.75
2022-09-12T02:05:34.934Z,3.25
2022-09-12T02:11:11.804Z,3.15
2022-09-12T02:16:59.935Z,3.40
2022-09-12T02:22:07.436Z,3.22
2022-09-12T02:28:02.978Z,3.30
2022-09-12T02:44:07.791Z,3.70
2022-09-12T02:49:22.859Z,3.30
2022-09-12T02:54:32.737Z,3.03
2022-09-12T03:07:54.097Z,3.47
2022-09-12T03:13:24.778Z,3.30
2022-09-12T03:19:05.737Z,4.47
2022-09-12T03:24:20.968Z,3.75
2022-09-12T03:29:26.270Z,3.20
2022-09-12T03:34:28.538Z,3.53
2022-09-12T03:39:31.839Z,3.25
2022-09-12T03:44:40.078Z,4.05
2022-09-12T03:49:45.914Z,3.92
2022-09-12T03:54:48.931Z,3.13
2022-09-12T03:59:51.031Z,2.92
2022-09-12T04:04:53.535Z,3.33
2022-09-12T04:09:56.321Z,3.08
2022-09-12T04:15:02.558Z,3.47
2022-09-12T04:34:21.130Z,3.13
2022-09-12T04:39:23.044Z,2.88
2022-09-12T04:44:35.836Z,3.22
2022-09-12T04:49:37.807Z,2.95
2022-09-12T04:54:39.881Z,3.35
2022-09-12T04:59:42.725Z,3.20
2022-09-12T05:04:46.980Z,2.42
2022-09-12T05:09:48.904Z,3.30
2022-09-12T05:14:50.837Z,3.17
2022-09-12T05:19:52.804Z,3.05
2022-09-12T05:24:57.913Z,3.58
2022-09-12T05:30:05.004Z,3.78
2022-09-12T05:35:09.321Z,3.90
2022-09-12T05:40:13.657Z,4.82
2022-09-12T05:45:15.878Z,4.47
2022-09-12T05:50:18.552Z,4.90
2022-09-12T05:55:21.637Z,4.90
2022-09-12T06:00:24.093Z,4.82
2022-09-12T06:05:29.568Z,4.15
2022-09-12T06:10:38.728Z,4.55
2022-09-12T06:15:40.900Z,4.53
2022-09-12T06:20:47.206Z,3.92
2022-09-12T06:25:50.258Z,3.67
2022-09-12T06:30:53.076Z,3.63
2022-09-12T06:35:55.085Z,4.82
2022-09-12T06:40:58.230Z,5.53
2022-09-12T06:46:00.799Z,4.38
2022-09-12T06:51:15.189Z,4.30
2022-09-12T06:56:20.046Z,4.40
2022-09-12T07:01:24.733Z,4.22
2022-09-12T07:06:32.327Z,4.85
2022-09-12T07:11:36.754Z,5.20
2022-09-12T07:16:38.816Z,5.43
2022-09-12T07:21:41.656Z,5.28
2022-09-12T07:26:44.265Z,4.82
2022-09-12T07:31:48.898Z,4.88
2022-09-12T07:36:54.527Z,4.50
2022-09-12T07:42:00.694Z,4.40
2022-09-12T07:47:04.724Z,3.67
2022-09-12T07:52:09.151Z,4.10
2022-09-12T07:57:13.789Z,4.18
2022-09-12T08:02:19.903Z,3.10
2022-09-12T08:07:24.831Z,3.70
2022-09-12T08:12:29.554Z,3.00
2022-09-12T08:17:33.196Z,3.28
2022-09-12T08:22:40.801Z,2.92
2022-09-12T08:27:52.267Z,2.40
2022-09-12T08:32:57.023Z,2.15
2022-09-12T08:37:59.039Z,2.15
2022-09-12T08:43:22.882Z,1.80
2022-09-12T08:48:25.202Z,2.17
2022-09-12T08:53:29.221Z,2.30
2022-09-12T08:58:39.808Z,2.30
2022-09-12T09:04:21.702Z,2.15
2022-09-12T09:09:30.398Z,1.70
2022-09-12T09:14:51.997Z,2.10
2022-09-12T09:20:36.394Z,2.40
2022-09-12T09:25:55.336Z,2.40
2022-09-12T09:30:59.951Z,2.33
2022-09-12T09:36:22.964Z,1.83
2022-09-12T09:41:51.036Z,1.65
2022-09-12T09:46:55.683Z,2.00
2022-09-12T09:52:00.868Z,2.00
2022-09-12T09:57:03.976Z,1.90
2022-09-12T10:02:15.203Z,1.92
2022-09-12T10:07:21.935Z,2.00
2022-09-12T10:12:28.632Z,1.80
2022-09-12T10:17:47.765Z,1.90
2022-09-12T10:22:52.363Z,1.58
2022-09-12T10:28:08.365Z,1.90
2022-09-12T10:33:13.686Z,1.70
2022-09-12T10:38:29.370Z,1.80
2022-09-12T10:43:44.930Z,1.58
2022-09-12T10:49:00.482Z,1.77
2022-09-12T10:54:13.870Z,1.80
2022-09-12T10:59:40.905Z,2.10
2022-09-12T11:05:28.460Z,1.50
2022-09-12T11:10:52.345Z,2.28
2022-09-12T11:16:13.988Z,2.20
2022-09-12T11:21:34.472Z,1.70
2022-09-12T11:27:25.721Z,1.48
2022-09-12T11:33:02.440Z,1.65
2022-09-12T11:38:10.228Z,1.75
2022-09-12T11:43:12.071Z,1.70
2022-09-12T11:48:27.477Z,1.60
2022-09-12T11:53:39.046Z,1.40
2022-09-12T11:58:44.628Z,1.70
2022-09-12T12:03:48.051Z,1.60
2022-09-12T12:08:50.814Z,1.20
2022-09-12T12:14:00.265Z,2.20
2022-09-12T12:19:10.974Z,1.60
2022-09-12T12:24:18.129Z,1.13
2022-09-12T12:29:20.133Z,1.60
2022-09-12T12:34:28.933Z,1.60
2022-09-12T12:39:33.839Z,1.05
2022-09-12T12:44:54.313Z,1.77
2022-09-12T12:50:05.465Z,1.58
2022-09-12T12:55:15.765Z,1.20
2022-09-12T13:00:20.862Z,1.40
2022-09-12T13:05:25.955Z,2.42
2022-09-12T13:10:30.283Z,1.50
2022-09-12T13:15:38.414Z,1.45
2022-09-12T13:20:51.044Z,1.60
2022-09-12T13:25:59.816Z,1.40
2022-09-12T13:31:27.568Z,1.55
2022-09-12T13:36:50.157Z,1.50
2022-09-12T13:42:10.745Z,1.98
2022-09-12T13:47:25.925Z,1.73
2022-09-12T13:52:40.324Z,1.73
2022-09-12T13:57:44.545Z,3.28
2022-09-12T14:02:50.736Z,1.65
2022-09-12T14:08:00.443Z,2.30
2022-09-12T14:13:05.806Z,1.90
2022-09-12T14:18:09.777Z,1.73
2022-09-12T14:23:34.290Z,2.47
2022-09-12T14:28:40.158Z,1.70
2022-09-12T14:33:52.815Z,1.77
2022-09-12T14:39:01.320Z,1.48
2022-09-12T14:44:08.258Z,1.60
2022-09-12T14:49:36.892Z,2.35
2022-09-12T14:54:42.525Z,1.90
2022-09-12T14:59:44.622Z,1.65
2022-09-12T15:04:48.539Z,1.50
2022-09-12T15:09:50.861Z,1.65
2022-09-12T15:14:52.760Z,1.70
2022-09-12T15:19:54.757Z,1.70
2022-09-12T15:24:57.860Z,1.70
2022-09-12T15:29:59.834Z,1.65
2022-09-12T15:35:01.908Z,1.75
2022-09-12T15:40:05.470Z,1.13
2022-09-12T15:45:21.985Z,1.50
2022-09-12T15:50:25.560Z,1.70
2022-09-12T15:55:32.584Z,1.30
2022-09-12T16:00:38.660Z,1.40
2022-09-12T16:05:43.087Z,1.75
2022-09-12T16:10:48.464Z,1.65
2022-09-12T16:15:52.033Z,2.17
2022-09-12T16:20:58.072Z,1.80
2022-09-12T16:26:04.730Z,2.10
2022-09-12T16:31:09.463Z,2.20
2022-09-12T16:36:16.091Z,2.10
2022-09-12T16:41:21.806Z,1.58
2022-09-12T16:46:28.919Z,1.77
2022-09-12T16:51:33.833Z,1.50
2022-09-12T16:56:36.266Z,1.60
2022-09-12T17:01:41.505Z,1.40
2022-09-12T17:06:44.174Z,1.70
2022-09-12T17:11:47.879Z,1.20
2022-09-12T17:16:52.055Z,1.38
2022-09-12T17:21:54.852Z,1.42
2022-09-12T17:26:57.244Z,1.15
2022-09-12T17:32:01.488Z,1.55
2022-09-12T17:37:05.738Z,1.42
2022-09-12T17:42:11.979Z,1.42
2022-09-12T17:47:14.314Z,1.35
2022-09-12T17:52:19.603Z,1.00
2022-09-12T17:57:22.187Z,1.55
2022-09-12T18:02:25.073Z,1.30
2022-09-12T18:07:27.130Z,0.82
2022-09-12T18:12:29.164Z,1.27
2022-09-12T18:17:31.125Z,1.33
2022-09-12T18:22:33.119Z,1.40
2022-09-12T18:27:35.089Z,1.50
2022-09-12T18:32:37.146Z,1.65
2022-09-12T18:37:43.665Z,1.10
2022-09-12T18:42:45.600Z,1.48
2022-09-12T18:47:47.567Z,1.35
2022-09-12T18:52:54.736Z,1.80
2022-09-12T18:57:58.585Z,9.15
2022-09-12T19:03:00.722Z,2.83
2022-09-12T19:08:02.930Z,1.88
2022-09-12T19:13:04.823Z,2.00
2022-09-12T19:18:06.749Z,1.70
2022-09-12T19:23:08.697Z,1.50
2022-09-12T19:28:10.739Z,2.03
2022-09-12T19:33:12.660Z,1.60
2022-09-12T19:38:14.977Z,1.52
2022-09-12T19:43:16.966Z,1.60
2022-09-12T19:48:20.588Z,1.90
2022-09-12T19:53:22.538Z,2.13
2022-09-12T19:58:24.604Z,2.33
2022-09-12T20:03:26.614Z,6.18
2022-09-12T20:08:28.673Z,4.22
2022-09-12T20:13:30.686Z,2.80
2022-09-12T20:18:32.667Z,2.05
2022-09-12T20:23:34.914Z,1.73
2022-09-12T20:28:37.923Z,1.45
2022-09-12T20:33:42.011Z,1.40
2022-09-12T20:38:59.914Z,1.40
2022-09-12T20:44:02.069Z,1.65
2022-09-12T20:49:04.512Z,2.05
2022-09-12T20:54:07.444Z,1.42
2022-09-12T20:59:23.186Z,2.08
2022-09-12T21:04:27.752Z,1.92
2022-09-12T21:09:29.754Z,2.03
2022-09-12T21:14:31.679Z,3.10
2022-09-12T21:19:33.604Z,2.63
2022-09-12T21:24:35.732Z,2.85
2022-09-12T21:29:38.131Z,2.10
2022-09-12T21:34:41.870Z,2.60
2022-09-12T21:39:59.954Z,2.30
2022-09-12T21:45:02.626Z,3.30
2022-09-12T21:50:06.842Z,2.45
2022-09-12T21:55:11.293Z,2.72
2022-09-12T22:00:18.080Z,2.30
2022-09-12T22:05:21.414Z,2.38
2022-09-12T22:10:23.521Z,2.20
2022-09-12T22:15:41.566Z,2.15
2022-09-12T22:20:44.254Z,1.80
2022-09-12T22:25:46.813Z,3.22
2022-09-12T22:30:48.830Z,2.90
2022-09-12T22:35:50.755Z,1.85
2022-09-12T22:40:52.900Z,1.88
2022-09-12T22:45:54.831Z,1.90
2022-09-12T22:50:56.761Z,1.70
2022-09-12T22:56:00.651Z,9.90
2022-09-12T23:01:04.665Z,3.25
2022-09-12T23:06:07.818Z,2.30
2022-09-12T23:11:17.281Z,2.30
2022-09-12T23:16:24.444Z,1.95
2022-09-12T23:21:27.028Z,1.50
2022-09-12T23:26:32.546Z,1.45
2022-09-12T23:31:36.976Z,1.25
2022-09-12T23:36:39.017Z,1.27
2022-09-12T23:41:45.617Z,1.50
2022-09-12T23:46:47.536Z,1.40
2022-09-12T23:51:49.404Z,1.70
2022-09-12T23:56:51.913Z,1.90
